^^
Station Historical Data
Daily Summary for March 11, 2017 Units:  Both    English   Metric
« Previous Day
Next Day »
Daily Weekly Monthly Yearly Custom
  High: Low: Average:
Temperature: 80.4 °F /  26.9 °C 58.6 °F /  14.8 °C 68.6 °F /  20.3 °C
Dew Point: 53.6 °F /  12 °C 42.6 °F /  5.9 °C 48.7 °F /  9.3 °C
Humidity: 83% 27% 53%
Wind Speed: 13.0mph /  20.9km/h - 2.5mph /  4km/h
Wind Gust: 18.0mph /  29km/h - -
Wind- - East
Pressure: 29.88 in /  1011.7 hPa 29.79 in /  1008.7 hPa -
Precipitation: 0.00 in /  0 mm    
Historical Graphs
 
 
Tabular Data for March 11, 2017
Time Temperature Dew Point Pressure Wind Wind Speed Wind Gust Humidity Rainfall Rate (Hourly) solar Conditions
00:01 64.9 °F /  18.3 °C 51.6 °F /  10.9 °C 29.85in /  1010.7hPa East 0.9mph /  1.4km/h 5.0mph /  8km/h 62% 0.00in /  0mm 0.0 W/m2
00:07 65.1 °F /  18.4 °C 51.3 °F /  10.7 °C 29.85in /  1010.7hPa ENE 2.0mph /  3.2km/h 4.0mph /  6.4km/h 61% 0.00in /  0mm 0.0 W/m2
00:14 65.1 °F /  18.4 °C 51.3 °F /  10.7 °C 29.85in /  1010.7hPa East 0.9mph /  1.4km/h 8.0mph /  12.9km/h 61% 0.00in /  0mm 0.0 W/m2
00:20 65.5 °F /  18.6 °C 52.2 °F /  11.2 °C 29.85in /  1010.7hPa NE 2.0mph /  3.2km/h 6.0mph /  9.7km/h 62% 0.00in /  0mm 0.0 W/m2
00:26 65.5 °F /  18.6 °C 52.2 °F /  11.2 °C 29.86in /  1011.1hPa East 11.0mph /  17.7km/h 11.0mph /  17.7km/h 62% 0.00in /  0mm 0.0 W/m2
00:32 65.5 °F /  18.6 °C 52.2 °F /  11.2 °C 29.85in /  1010.7hPa NE 2.0mph /  3.2km/h 7.0mph /  11.3km/h 62% 0.00in /  0mm 0.0 W/m2
00:38 65.5 °F /  18.6 °C 52.5 °F /  11.4 °C 29.85in /  1010.7hPa Calm   6.0mph /  9.7km/h 63% 0.00in /  0mm 0.0 W/m2
00:44 65.5 °F /  18.6 °C 53.1 °F /  11.7 °C 29.85in /  1010.7hPa Calm   8.0mph /  12.9km/h 64% 0.00in /  0mm 0.0 W/m2
00:50 65.1 °F /  18.4 °C 53.1 °F /  11.7 °C 29.85in /  1010.7hPa NE 0.9mph /  1.4km/h 6.0mph /  9.7km/h 65% 0.00in /  0mm 0.0 W/m2
00:57 64.9 °F /  18.3 °C 52.9 °F /  11.6 °C 29.85in /  1010.7hPa SE 2.9mph /  4.7km/h 8.0mph /  12.9km/h 65% 0.00in /  0mm 0.0 W/m2
01:03 64.8 °F /  18.2 °C 53.1 °F /  11.7 °C 29.85in /  1010.7hPa Calm   6.0mph /  9.7km/h 66% 0.00in /  0mm 0.0 W/m2
01:09 64.6 °F /  18.1 °C 53.4 °F /  11.9 °C 29.85in /  1010.7hPa East 4.0mph /  6.4km/h 5.0mph /  8km/h 67% 0.00in /  0mm 0.0 W/m2
01:15 64.4 °F /  18 °C 53.2 °F /  11.8 °C 29.85in /  1010.7hPa Calm   4.0mph /  6.4km/h 67% 0.00in /  0mm 0.0 W/m2
01:21 64.2 °F /  17.9 °C 53.4 °F /  11.9 °C 29.85in /  1010.7hPa East 4.0mph /  6.4km/h 4.0mph /  6.4km/h 68% 0.00in /  0mm 0.0 W/m2
01:27 64.0 °F /  17.8 °C 53.6 °F /  12 °C 29.85in /  1010.7hPa East 4.0mph /  6.4km/h 5.0mph /  8km/h 69% 0.00in /  0mm 0.0 W/m2
01:33 63.9 °F /  17.7 °C 53.4 °F /  11.9 °C 29.85in /  1010.7hPa ENE 0.9mph /  1.4km/h 6.0mph /  9.7km/h 69% 0.00in /  0mm 0.0 W/m2
01:39 63.7 °F /  17.6 °C 53.2 °F /  11.8 °C 29.85in /  1010.7hPa East 2.9mph /  4.7km/h 6.0mph /  9.7km/h 69% 0.00in /  0mm 0.0 W/m2
01:46 63.7 °F /  17.6 °C 53.2 °F /  11.8 °C 29.84in /  1010.4hPa ESE 2.9mph /  4.7km/h 6.0mph /  9.7km/h 69% 0.00in /  0mm 0.0 W/m2
01:52 63.5 °F /  17.5 °C 53.1 °F /  11.7 °C 29.84in /  1010.4hPa ENE 0.9mph /  1.4km/h 5.0mph /  8km/h 69% 0.00in /  0mm 0.0 W/m2
01:58 63.3 °F /  17.4 °C 53.4 °F /  11.9 °C 29.84in /  1010.4hPa ENE 2.0mph /  3.2km/h 4.0mph /  6.4km/h 70% 0.00in /  0mm 0.0 W/m2
02:04 63.1 °F /  17.3 °C 53.2 °F /  11.8 °C 29.84in /  1010.4hPa ESE 0.9mph /  1.4km/h 4.0mph /  6.4km/h 70% 0.00in /  0mm 0.0 W/m2
02:10 63.0 °F /  17.2 °C 53.1 °F /  11.7 °C 29.84in /  1010.4hPa Calm   4.0mph /  6.4km/h 70% 0.00in /  0mm 0.0 W/m2
02:16 63.0 °F /  17.2 °C 53.1 °F /  11.7 °C 29.84in /  1010.4hPa Calm   8.0mph /  12.9km/h 70% 0.00in /  0mm 0.0 W/m2
02:22 63.0 °F /  17.2 °C 53.1 °F /  11.7 °C 29.83in /  1010hPa East 0.9mph /  1.4km/h 4.0mph /  6.4km/h 70% 0.00in /  0mm 0.0 W/m2
02:29 62.8 °F /  17.1 °C 52.9 °F /  11.6 °C 29.83in /  1010hPa ESE 2.9mph /  4.7km/h 5.0mph /  8km/h 70% 0.00in /  0mm 0.0 W/m2
02:35 62.6 °F /  17 °C 53.1 °F /  11.7 °C 29.83in /  1010hPa Calm   5.0mph /  8km/h 71% 0.00in /  0mm 0.0 W/m2
02:41 62.4 °F /  16.9 °C 52.9 °F /  11.6 °C 29.83in /  1010hPa Calm   4.0mph /  6.4km/h 71% 0.00in /  0mm 0.0 W/m2
02:47 62.4 °F /  16.9 °C 52.9 °F /  11.6 °C 29.83in /  1010hPa Calm   4.0mph /  6.4km/h 71% 0.00in /  0mm 0.0 W/m2
02:53 62.2 °F /  16.8 °C 52.7 °F /  11.5 °C 29.83in /  1010hPa SE 2.0mph /  3.2km/h 5.0mph /  8km/h 71% 0.00in /  0mm 0.0 W/m2
02:59 62.1 °F /  16.7 °C 52.9 °F /  11.6 °C 29.83in /  1010hPa East 2.0mph /  3.2km/h 3.0mph /  4.8km/h 72% 0.00in /  0mm 0.0 W/m2
03:05 61.9 °F /  16.6 °C 52.7 °F /  11.5 °C 29.83in /  1010hPa Calm   4.0mph /  6.4km/h 72% 0.00in /  0mm 0.0 W/m2
03:11 61.9 °F /  16.6 °C 52.7 °F /  11.5 °C 29.83in /  1010hPa NE 0.9mph /  1.4km/h 3.0mph /  4.8km/h 72% 0.00in /  0mm 0.0 W/m2
03:19 61.7 °F /  16.5 °C 52.5 °F /  11.4 °C 29.83in /  1010hPa Calm   4.0mph /  6.4km/h 72% 0.00in /  0mm 0.0 W/m2
03:26 61.5 °F /  16.4 °C 52.3 °F /  11.3 °C 29.83in /  1010hPa Calm   3.0mph /  4.8km/h 72% 0.00in /  0mm 0.0 W/m2
03:32 61.5 °F /  16.4 °C 52.7 °F /  11.5 °C 29.83in /  1010hPa ESE 2.9mph /  4.7km/h 4.0mph /  6.4km/h 73% 0.00in /  0mm 0.0 W/m2
03:38 61.3 °F /  16.3 °C 52.7 °F /  11.5 °C 29.83in /  1010hPa Calm   2.0mph /  3.2km/h 73% 0.00in /  0mm 0.0 W/m2
03:44 61.2 °F /  16.2 °C 52.9 °F /  11.6 °C 29.83in /  1010hPa ENE 2.0mph /  3.2km/h 7.0mph /  11.3km/h 74% 0.00in /  0mm 0.0 W/m2
03:50 61.2 °F /  16.2 °C 52.9 °F /  11.6 °C 29.83in /  1010hPa ENE 0.9mph /  1.4km/h 3.0mph /  4.8km/h 74% 0.00in /  0mm 0.0 W/m2
03:56 61.2 °F /  16.2 °C 52.9 °F /  11.6 °C 29.82in /  1009.7hPa SE 2.0mph /  3.2km/h 6.0mph /  9.7km/h 74% 0.00in /  0mm 0.0 W/m2
04:03 61.0 °F /  16.1 °C 53.1 °F /  11.7 °C 29.83in /  1010hPa ENE 2.9mph /  4.7km/h 4.0mph /  6.4km/h 75% 0.00in /  0mm 0.0 W/m2
04:09 61.0 °F /  16.1 °C 53.1 °F /  11.7 °C 29.83in /  1010hPa East 2.0mph /  3.2km/h 5.0mph /  8km/h 75% 0.00in /  0mm 0.0 W/m2
04:15 61.0 °F /  16.1 °C 52.7 °F /  11.5 °C 29.82in /  1009.7hPa ESE 0.9mph /  1.4km/h 3.0mph /  4.8km/h 74% 0.00in /  0mm 0.0 W/m2
04:21 61.2 °F /  16.2 °C 52.9 °F /  11.6 °C 29.82in /  1009.7hPa NE 2.9mph /  4.7km/h 5.0mph /  8km/h 74% 0.00in /  0mm 0.0 W/m2
04:27 61.0 °F /  16.1 °C 52.7 °F /  11.5 °C 29.82in /  1009.7hPa NE 2.9mph /  4.7km/h 3.0mph /  4.8km/h 74% 0.00in /  0mm 0.0 W/m2
04:33 61.0 °F /  16.1 °C 53.1 °F /  11.7 °C 29.82in /  1009.7hPa ENE 0.9mph /  1.4km/h 5.0mph /  8km/h 75% 0.00in /  0mm 0.0 W/m2
04:39 60.8 °F /  16 °C 52.9 °F /  11.6 °C 29.82in /  1009.7hPa ENE 0.9mph /  1.4km/h 3.0mph /  4.8km/h 75% 0.00in /  0mm 0.0 W/m2
04:45 60.6 °F /  15.9 °C 52.7 °F /  11.5 °C 29.82in /  1009.7hPa NNE 0.9mph /  1.4km/h 5.0mph /  8km/h 75% 0.00in /  0mm 0.0 W/m2
04:51 60.4 °F /  15.8 °C 52.5 °F /  11.4 °C 29.82in /  1009.7hPa NE 0.9mph /  1.4km/h 4.0mph /  6.4km/h 75% 0.00in /  0mm 0.0 W/m2
04:57 60.4 °F /  15.8 °C 52.9 °F /  11.6 °C 29.82in /  1009.7hPa Calm   5.0mph /  8km/h 76% 0.00in /  0mm 0.0 W/m2
05:04 60.3 °F /  15.7 °C 52.7 °F /  11.5 °C 29.82in /  1009.7hPa East 4.0mph /  6.4km/h 5.0mph /  8km/h 76% 0.00in /  0mm 0.0 W/m2
05:10 60.3 °F /  15.7 °C 53.1 °F /  11.7 °C 29.82in /  1009.7hPa NE 2.0mph /  3.2km/h 7.0mph /  11.3km/h 77% 0.00in /  0mm 0.0 W/m2
05:16 60.1 °F /  15.6 °C 52.9 °F /  11.6 °C 29.83in /  1010hPa NE 0.9mph /  1.4km/h 4.0mph /  6.4km/h 77% 0.00in /  0mm 0.0 W/m2
05:22 60.1 °F /  15.6 °C 52.9 °F /  11.6 °C 29.83in /  1010hPa Calm   5.0mph /  8km/h 77% 0.00in /  0mm 0.0 W/m2
05:28 59.7 °F /  15.4 °C 52.9 °F /  11.6 °C 29.83in /  1010hPa NE 4.0mph /  6.4km/h 7.0mph /  11.3km/h 78% 0.00in /  0mm 0.0 W/m2
05:34 59.7 °F /  15.4 °C 53.2 °F /  11.8 °C 29.83in /  1010hPa Calm   4.0mph /  6.4km/h 79% 0.00in /  0mm 0.0 W/m2
05:40 59.5 °F /  15.3 °C 53.1 °F /  11.7 °C 29.83in /  1010hPa Calm   7.0mph /  11.3km/h 79% 0.00in /  0mm 0.0 W/m2
05:46 59.5 °F /  15.3 °C 53.4 °F /  11.9 °C 29.83in /  1010hPa ENE 2.9mph /  4.7km/h 4.0mph /  6.4km/h 80% 0.00in /  0mm 0.0 W/m2
05:53 59.4 °F /  15.2 °C 53.2 °F /  11.8 °C 29.84in /  1010.4hPa Calm   5.0mph /  8km/h 80% 0.00in /  0mm 0.0 W/m2
05:59 59.4 °F /  15.2 °C 53.2 °F /  11.8 °C 29.84in /  1010.4hPa ESE 2.9mph /  4.7km/h 6.0mph /  9.7km/h 80% 0.00in /  0mm 0.0 W/m2
06:05 59.2 °F /  15.1 °C 53.1 °F /  11.7 °C 29.85in /  1010.7hPa Calm   2.0mph /  3.2km/h 80% 0.00in /  0mm 0.0 W/m2
06:11 59.2 °F /  15.1 °C 53.1 °F /  11.7 °C 29.85in /  1010.7hPa East 6.0mph /  9.7km/h 6.0mph /  9.7km/h 80% 0.00in /  0mm 0.0 W/m2
06:17 58.8 °F /  14.9 °C 52.7 °F /  11.5 °C 29.85in /  1010.7hPa Calm   3.0mph /  4.8km/h 80% 0.00in /  0mm 0.0 W/m2
06:23 58.8 °F /  14.9 °C 53.1 °F /  11.7 °C 29.85in /  1010.7hPa Calm   4.0mph /  6.4km/h 81% 0.00in /  0mm 0.0 W/m2
06:31 58.6 °F /  14.8 °C 52.9 °F /  11.6 °C 29.85in /  1010.7hPa Calm   6.0mph /  9.7km/h 81% 0.00in /  0mm 0.0 W/m2
06:37 58.8 °F /  14.9 °C 53.1 °F /  11.7 °C 29.86in /  1011.1hPa Calm   7.0mph /  11.3km/h 81% 0.00in /  0mm 0.0 W/m2
06:44 58.8 °F /  14.9 °C 53.1 °F /  11.7 °C 29.86in /  1011.1hPa Calm   11.0mph /  17.7km/h 81% 0.00in /  0mm 0.0 W/m2
06:49 58.8 °F /  14.9 °C 53.1 °F /  11.7 °C 29.86in /  1011.1hPa SE 2.0mph /  3.2km/h 8.0mph /  12.9km/h 81% 0.00in /  0mm 0.0 W/m2
06:56 58.8 °F /  14.9 °C 53.4 °F /  11.9 °C 29.86in /  1011.1hPa NE 4.0mph /  6.4km/h 7.0mph /  11.3km/h 82% 0.00in /  0mm 0.0 W/m2
07:06 58.8 °F /  14.9 °C 53.4 °F /  11.9 °C 29.87in /  1011.4hPa ENE 0.9mph /  1.4km/h 8.0mph /  12.9km/h 82% 0.00in /  0mm 9.0 W/m2
07:13 58.8 °F /  14.9 °C 53.6 °F /  12 °C 29.87in /  1011.4hPa ESE 2.9mph /  4.7km/h 6.0mph /  9.7km/h 83% 0.00in /  0mm 12.0 W/m2
07:20 58.8 °F /  14.9 °C 53.6 °F /  12 °C 29.87in /  1011.4hPa East 2.0mph /  3.2km/h 4.0mph /  6.4km/h 83% 0.00in /  0mm 14.0 W/m2
07:26 58.8 °F /  14.9 °C 53.6 °F /  12 °C 29.88in /  1011.7hPa NE 4.9mph /  7.9km/h 7.0mph /  11.3km/h 83% 0.00in /  0mm 18.0 W/m2
13:19 78.1 °F /  25.6 °C 48.2 °F /  9 °C 29.83in /  1010hPa NE 4.0mph /  6.4km/h 12.0mph /  19.3km/h 35% 0.00in /  0mm 1000.0 W/m2
13:25 78.3 °F /  25.7 °C 47.7 °F /  8.7 °C 29.83in /  1010hPa East 2.9mph /  4.7km/h 14.0mph /  22.5km/h 34% 0.00in /  0mm 1000.0 W/m2
13:31 78.3 °F /  25.7 °C 46.8 °F /  8.2 °C 29.83in /  1010hPa SSE 2.9mph /  4.7km/h 12.0mph /  19.3km/h 33% 0.00in /  0mm 997.0 W/m2
13:37 78.4 °F /  25.8 °C 46.9 °F /  8.3 °C 29.82in /  1009.7hPa ESE 2.9mph /  4.7km/h 13.0mph /  20.9km/h 33% 0.00in /  0mm 991.0 W/m2
13:43 78.8 °F /  26 °C 47.3 °F /  8.5 °C 29.82in /  1009.7hPa ENE 11.0mph /  17.7km/h 13.0mph /  20.9km/h 33% 0.00in /  0mm 983.0 W/m2
13:49 79.0 °F /  26.1 °C 46.6 °F /  8.1 °C 29.81in /  1009.4hPa ESE 6.9mph /  11.1km/h 8.0mph /  12.9km/h 32% 0.00in /  0mm 979.0 W/m2
13:55 79.3 °F /  26.3 °C 46.0 °F /  7.8 °C 29.81in /  1009.4hPa ESE 4.0mph /  6.4km/h 11.0mph /  17.7km/h 31% 0.00in /  0mm 965.0 W/m2
14:01 79.2 °F /  26.2 °C 46.8 °F /  8.2 °C 29.81in /  1009.4hPa ENE 6.0mph /  9.7km/h 13.0mph /  20.9km/h 32% 0.00in /  0mm 960.0 W/m2
14:07 79.3 °F /  26.3 °C 44.2 °F /  6.8 °C 29.81in /  1009.4hPa ESE 2.9mph /  4.7km/h 18.0mph /  29km/h 29% 0.00in /  0mm 962.0 W/m2
14:13 79.3 °F /  26.3 °C 45.1 °F /  7.3 °C 29.81in /  1009.4hPa ESE 2.9mph /  4.7km/h 13.0mph /  20.9km/h 30% 0.00in /  0mm 947.0 W/m2
14:19 79.3 °F /  26.3 °C 45.1 °F /  7.3 °C 29.81in /  1009.4hPa NE 6.0mph /  9.7km/h 14.0mph /  22.5km/h 30% 0.00in /  0mm 940.0 W/m2
14:25 79.3 °F /  26.3 °C 45.1 °F /  7.3 °C 29.81in /  1009.4hPa East 4.0mph /  6.4km/h 12.0mph /  19.3km/h 30% 0.00in /  0mm 930.0 W/m2
14:31 79.3 °F /  26.3 °C 44.2 °F /  6.8 °C 29.81in /  1009.4hPa East 8.1mph /  13km/h 12.0mph /  19.3km/h 29% 0.00in /  0mm 919.0 W/m2
14:37 79.2 °F /  26.2 °C 45.1 °F /  7.3 °C 29.81in /  1009.4hPa NNW 2.9mph /  4.7km/h 14.0mph /  22.5km/h 30% 0.00in /  0mm 911.0 W/m2
14:43 79.2 °F /  26.2 °C 45.1 °F /  7.3 °C 29.81in /  1009.4hPa East 10.1mph /  16.3km/h 12.0mph /  19.3km/h 30% 0.00in /  0mm 886.0 W/m2
14:49 79.2 °F /  26.2 °C 45.9 °F /  7.7 °C 29.80in /  1009hPa East 4.0mph /  6.4km/h 11.0mph /  17.7km/h 31% 0.00in /  0mm 874.0 W/m2
14:55 79.3 °F /  26.3 °C 46.0 °F /  7.8 °C 29.80in /  1009hPa ESE 6.0mph /  9.7km/h 13.0mph /  20.9km/h 31% 0.00in /  0mm 865.0 W/m2
15:01 79.9 °F /  26.6 °C 45.7 °F /  7.6 °C 29.80in /  1009hPa SE 8.9mph /  14.3km/h 10.0mph /  16.1km/h 30% 0.00in /  0mm 854.0 W/m2
15:07 79.9 °F /  26.6 °C 45.7 °F /  7.6 °C 29.80in /  1009hPa NNW 0.9mph /  1.4km/h 14.0mph /  22.5km/h 30% 0.00in /  0mm 837.0 W/m2
15:13 80.1 °F /  26.7 °C 45.9 °F /  7.7 °C 29.80in /  1009hPa ESE 11.0mph /  17.7km/h 16.0mph /  25.7km/h 30% 0.00in /  0mm 823.0 W/m2
15:19 80.2 °F /  26.8 °C 46.0 °F /  7.8 °C 29.80in /  1009hPa SE 8.9mph /  14.3km/h 12.0mph /  19.3km/h 30% 0.00in /  0mm 809.0 W/m2
15:25 80.4 °F /  26.9 °C 46.2 °F /  7.9 °C 29.80in /  1009hPa SE 13.0mph /  20.9km/h 14.0mph /  22.5km/h 30% 0.00in /  0mm 796.0 W/m2
15:31 80.1 °F /  26.7 °C 45.9 °F /  7.7 °C 29.80in /  1009hPa SSE 11.0mph /  17.7km/h 12.0mph /  19.3km/h 30% 0.00in /  0mm 775.0 W/m2
15:37 79.9 °F /  26.6 °C 45.7 °F /  7.6 °C 29.80in /  1009hPa ESE 2.9mph /  4.7km/h 13.0mph /  20.9km/h 30% 0.00in /  0mm 770.0 W/m2
15:43 79.9 °F /  26.6 °C 44.8 °F /  7.1 °C 29.80in /  1009hPa SE 8.1mph /  13km/h 13.0mph /  20.9km/h 29% 0.00in /  0mm 751.0 W/m2
15:49 80.1 °F /  26.7 °C 45.9 °F /  7.7 °C 29.79in /  1008.7hPa NE 0.9mph /  1.4km/h 9.0mph /  14.5km/h 30% 0.00in /  0mm 722.0 W/m2
15:55 80.1 °F /  26.7 °C 45.0 °F /  7.2 °C 29.80in /  1009hPa East 6.9mph /  11.1km/h 12.0mph /  19.3km/h 29% 0.00in /  0mm 703.0 W/m2
16:01 79.9 °F /  26.6 °C 43.9 °F /  6.6 °C 29.80in /  1009hPa SE 10.1mph /  16.3km/h 11.0mph /  17.7km/h 28% 0.00in /  0mm 691.0 W/m2
16:07 79.7 °F /  26.5 °C 43.7 °F /  6.5 °C 29.79in /  1008.7hPa SE 8.1mph /  13km/h 12.0mph /  19.3km/h 28% 0.00in /  0mm 673.0 W/m2
16:13 79.7 °F /  26.5 °C 44.6 °F /  7 °C 29.79in /  1008.7hPa ESE 4.0mph /  6.4km/h 13.0mph /  20.9km/h 29% 0.00in /  0mm 645.0 W/m2
16:19 79.7 °F /  26.5 °C 43.7 °F /  6.5 °C 29.79in /  1008.7hPa SE 8.1mph /  13km/h 9.0mph /  14.5km/h 28% 0.00in /  0mm 629.0 W/m2
16:25 79.7 °F /  26.5 °C 43.7 °F /  6.5 °C 29.79in /  1008.7hPa SE 13.0mph /  20.9km/h 14.0mph /  22.5km/h 28% 0.00in /  0mm 608.0 W/m2
16:31 79.5 °F /  26.4 °C 42.6 °F /  5.9 °C 29.79in /  1008.7hPa SE 4.0mph /  6.4km/h 16.0mph /  25.7km/h 27% 0.00in /  0mm 587.0 W/m2
16:37 79.7 °F /  26.5 °C 43.7 °F /  6.5 °C 29.79in /  1008.7hPa ENE 6.0mph /  9.7km/h 8.0mph /  12.9km/h 28% 0.00in /  0mm 566.0 W/m2
16:43 79.9 °F /  26.6 °C 43.0 °F /  6.1 °C 29.79in /  1008.7hPa NE 4.0mph /  6.4km/h 14.0mph /  22.5km/h 27% 0.00in /  0mm 536.0 W/m2
16:49 79.9 °F /  26.6 °C 43.9 °F /  6.6 °C 29.79in /  1008.7hPa ESE 4.9mph /  7.9km/h 10.0mph /  16.1km/h 28% 0.00in /  0mm 519.0 W/m2
16:55 79.9 °F /  26.6 °C 43.0 °F /  6.1 °C 29.79in /  1008.7hPa ESE 6.9mph /  11.1km/h 12.0mph /  19.3km/h 27% 0.00in /  0mm 494.0 W/m2
17:01 79.9 °F /  26.6 °C 43.9 °F /  6.6 °C 29.79in /  1008.7hPa SSE 4.0mph /  6.4km/h 10.0mph /  16.1km/h 28% 0.00in /  0mm 471.0 W/m2
17:07 79.9 °F /  26.6 °C 43.0 °F /  6.1 °C 29.79in /  1008.7hPa SE 2.9mph /  4.7km/h 9.0mph /  14.5km/h 27% 0.00in /  0mm 450.0 W/m2
17:13 79.7 °F /  26.5 °C 42.8 °F /  6 °C 29.79in /  1008.7hPa ESE 4.0mph /  6.4km/h 10.0mph /  16.1km/h 27% 0.00in /  0mm 424.0 W/m2
17:19 79.5 °F /  26.4 °C 43.5 °F /  6.4 °C 29.80in /  1009hPa SE 4.0mph /  6.4km/h 11.0mph /  17.7km/h 28% 0.00in /  0mm 406.0 W/m2
17:25 79.5 °F /  26.4 °C 44.4 °F /  6.9 °C 29.79in /  1008.7hPa SE 4.0mph /  6.4km/h 7.0mph /  11.3km/h 29% 0.00in /  0mm 378.0 W/m2
17:31 79.2 °F /  26.2 °C 44.2 °F /  6.8 °C 29.79in /  1008.7hPa East 2.0mph /  3.2km/h 11.0mph /  17.7km/h 29% 0.00in /  0mm 350.0 W/m2
17:37 79.2 °F /  26.2 °C 45.1 °F /  7.3 °C 29.79in /  1008.7hPa ENE 6.0mph /  9.7km/h 10.0mph /  16.1km/h 30% 0.00in /  0mm 336.0 W/m2
17:43 79.2 °F /  26.2 °C 45.1 °F /  7.3 °C 29.79in /  1008.7hPa SSE 2.9mph /  4.7km/h 9.0mph /  14.5km/h 30% 0.00in /  0mm 185.0 W/m2
17:49 79.0 °F /  26.1 °C 45.0 °F /  7.2 °C 29.79in /  1008.7hPa ESE 11.0mph /  17.7km/h 11.0mph /  17.7km/h 30% 0.00in /  0mm 279.0 W/m2
17:55 78.4 °F /  25.8 °C 43.5 °F /  6.4 °C 29.80in /  1009hPa NE 6.9mph /  11.1km/h 11.0mph /  17.7km/h 29% 0.00in /  0mm 44.0 W/m2
18:01 78.1 °F /  25.6 °C 45.0 °F /  7.2 °C 29.79in /  1008.7hPa SSE 0.9mph /  1.4km/h 7.0mph /  11.3km/h 31% 0.00in /  0mm 244.0 W/m2
18:07 78.1 °F /  25.6 °C 45.0 °F /  7.2 °C 29.79in /  1008.7hPa East 4.0mph /  6.4km/h 9.0mph /  14.5km/h 31% 0.00in /  0mm 216.0 W/m2
18:13 77.7 °F /  25.4 °C 44.6 °F /  7 °C 29.79in /  1008.7hPa SE 2.0mph /  3.2km/h 9.0mph /  14.5km/h 31% 0.00in /  0mm 193.0 W/m2
18:19 77.5 °F /  25.3 °C 43.7 °F /  6.5 °C 29.80in /  1009hPa NNE 4.0mph /  6.4km/h 13.0mph /  20.9km/h 30% 0.00in /  0mm 163.0 W/m2
18:25 77.4 °F /  25.2 °C 44.4 °F /  6.9 °C 29.80in /  1009hPa ESE 2.0mph /  3.2km/h 4.0mph /  6.4km/h 31% 0.00in /  0mm 30.0 W/m2
18:31 76.6 °F /  24.8 °C 44.6 °F /  7 °C 29.80in /  1009hPa SE 4.9mph /  7.9km/h 8.0mph /  12.9km/h 32% 0.00in /  0mm 98.0 W/m2
18:37 76.5 °F /  24.7 °C 45.1 °F /  7.3 °C 29.80in /  1009hPa South 0.9mph /  1.4km/h 6.0mph /  9.7km/h 33% 0.00in /  0mm 90.0 W/m2
18:43 76.5 °F /  24.7 °C 45.1 °F /  7.3 °C 29.80in /  1009hPa ESE 2.9mph /  4.7km/h 7.0mph /  11.3km/h 33% 0.00in /  0mm 30.0 W/m2
18:49 75.9 °F /  24.4 °C 44.8 °F /  7.1 °C 29.80in /  1009hPa East 4.9mph /  7.9km/h 5.0mph /  8km/h 33% 0.00in /  0mm 37.0 W/m2
18:55 75.4 °F /  24.1 °C 45.1 °F /  7.3 °C 29.80in /  1009hPa Calm   4.0mph /  6.4km/h 34% 0.00in /  0mm 18.0 W/m2
19:01 74.8 °F /  23.8 °C 45.3 °F /  7.4 °C 29.80in /  1009hPa SE 2.9mph /  4.7km/h 4.0mph /  6.4km/h 35% 0.00in /  0mm 11.0 W/m2
19:07 74.5 °F /  23.6 °C 45.9 °F /  7.7 °C 29.80in /  1009hPa ESE 4.0mph /  6.4km/h 5.0mph /  8km/h 36% 0.00in /  0mm 5.0 W/m2
19:13 73.8 °F /  23.2 °C 45.9 °F /  7.7 °C 29.80in /  1009hPa ESE 4.9mph /  7.9km/h 7.0mph /  11.3km/h 37% 0.00in /  0mm 0.0 W/m2
19:19 73.0 °F /  22.8 °C 45.1 °F /  7.3 °C 29.81in /  1009.4hPa ESE 2.9mph /  4.7km/h 4.0mph /  6.4km/h 37% 0.00in /  0mm 0.0 W/m2
19:27 72.3 °F /  22.4 °C 45.3 °F /  7.4 °C 29.81in /  1009.4hPa SE 0.9mph /  1.4km/h 6.0mph /  9.7km/h 38% 0.00in /  0mm 0.0 W/m2
19:33 72.0 °F /  22.2 °C 45.0 °F /  7.2 °C 29.81in /  1009.4hPa ESE 2.0mph /  3.2km/h 4.0mph /  6.4km/h 38% 0.00in /  0mm 0.0 W/m2
19:40 71.6 °F /  22 °C 45.3 °F /  7.4 °C 29.81in /  1009.4hPa ESE 0.9mph /  1.4km/h 5.0mph /  8km/h 39% 0.00in /  0mm 0.0 W/m2
19:46 71.2 °F /  21.8 °C 45.7 °F /  7.6 °C 29.81in /  1009.4hPa SE 0.9mph /  1.4km/h 2.0mph /  3.2km/h 40% 0.00in /  0mm 0.0 W/m2
19:52 71.1 °F /  21.7 °C 45.5 °F /  7.5 °C 29.81in /  1009.4hPa Calm   2.0mph /  3.2km/h 40% 0.00in /  0mm 0.0 W/m2
19:58 70.7 °F /  21.5 °C 45.9 °F /  7.7 °C 29.81in /  1009.4hPa Calm   2.0mph /  3.2km/h 41% 0.00in /  0mm 0.0 W/m2
20:04 70.5 °F /  21.4 °C 45.7 °F /  7.6 °C 29.82in /  1009.7hPa ESE 0.9mph /  1.4km/h 2.0mph /  3.2km/h 41% 0.00in /  0mm 0.0 W/m2
20:10 70.2 °F /  21.2 °C 46.0 °F /  7.8 °C 29.82in /  1009.7hPa Calm   1.0mph /  1.6km/h 42% 0.00in /  0mm 0.0 W/m2
20:16 70.0 °F /  21.1 °C 45.9 °F /  7.7 °C 29.82in /  1009.7hPa Calm   2.0mph /  3.2km/h 42% 0.00in /  0mm 0.0 W/m2
20:22 69.6 °F /  20.9 °C 45.5 °F /  7.5 °C 29.83in /  1010hPa Calm   2.0mph /  3.2km/h 42% 0.00in /  0mm 0.0 W/m2
20:28 69.3 °F /  20.7 °C 45.9 °F /  7.7 °C 29.83in /  1010hPa Calm   2.0mph /  3.2km/h 43% 0.00in /  0mm 0.0 W/m2
20:34 68.9 °F /  20.5 °C 46.0 °F /  7.8 °C 29.83in /  1010hPa ENE 0.9mph /  1.4km/h 1.0mph /  1.6km/h 44% 0.00in /  0mm 0.0 W/m2
20:40 68.5 °F /  20.3 °C 46.9 °F /  8.3 °C 29.83in /  1010hPa Calm   1.0mph /  1.6km/h 46% 0.00in /  0mm 0.0 W/m2
20:46 68.0 °F /  20 °C 46.9 °F /  8.3 °C 29.83in /  1010hPa Calm   2.0mph /  3.2km/h 47% 0.00in /  0mm 0.0 W/m2
20:52 67.6 °F /  19.8 °C 46.8 °F /  8.2 °C 29.84in /  1010.4hPa Calm   1.0mph /  1.6km/h 47% 0.00in /  0mm 0.0 W/m2
21:00 67.1 °F /  19.5 °C 47.3 °F /  8.5 °C 29.84in /  1010.4hPa Calm   1.0mph /  1.6km/h 49% 0.00in /  0mm 0.0 W/m2
21:06 66.7 °F /  19.3 °C 47.5 °F /  8.6 °C 29.84in /  1010.4hPa Calm     50% 0.00in /  0mm 0.0 W/m2
21:13 66.4 °F /  19.1 °C 47.1 °F /  8.4 °C 29.85in /  1010.7hPa East 0.9mph /  1.4km/h 1.0mph /  1.6km/h 50% 0.00in /  0mm 0.0 W/m2
21:19 66.0 °F /  18.9 °C 47.3 °F /  8.5 °C 29.85in /  1010.7hPa Calm     51% 0.00in /  0mm 0.0 W/m2
21:25 65.8 °F /  18.8 °C 47.1 °F /  8.4 °C 29.85in /  1010.7hPa Calm   2.0mph /  3.2km/h 51% 0.00in /  0mm 0.0 W/m2
21:31 65.7 °F /  18.7 °C 46.6 °F /  8.1 °C 29.85in /  1010.7hPa Calm   1.0mph /  1.6km/h 50% 0.00in /  0mm 0.0 W/m2
21:37 65.7 °F /  18.7 °C 46.6 °F /  8.1 °C 29.85in /  1010.7hPa Calm   1.0mph /  1.6km/h 50% 0.00in /  0mm 0.0 W/m2
21:43 65.5 °F /  18.6 °C 46.4 °F /  8 °C 29.85in /  1010.7hPa Calm   1.0mph /  1.6km/h 50% 0.00in /  0mm 0.0 W/m2
21:49 65.3 °F /  18.5 °C 47.3 °F /  8.5 °C 29.85in /  1010.7hPa Calm   2.0mph /  3.2km/h 52% 0.00in /  0mm 0.0 W/m2
21:55 65.1 °F /  18.4 °C 47.1 °F /  8.4 °C 29.85in /  1010.7hPa Calm   1.0mph /  1.6km/h 52% 0.00in /  0mm 0.0 W/m2
22:01 64.8 °F /  18.2 °C 47.3 °F /  8.5 °C 29.86in /  1011.1hPa Calm   1.0mph /  1.6km/h 53% 0.00in /  0mm 0.0 W/m2
22:07 64.4 °F /  18 °C 47.5 °F /  8.6 °C 29.86in /  1011.1hPa Calm   1.0mph /  1.6km/h 54% 0.00in /  0mm 0.0 W/m2
22:13 64.2 °F /  17.9 °C 47.7 °F /  8.7 °C 29.86in /  1011.1hPa Calm   1.0mph /  1.6km/h 55% 0.00in /  0mm 0.0 W/m2
22:19 63.9 °F /  17.7 °C 47.8 °F /  8.8 °C 29.86in /  1011.1hPa Calm     56% 0.00in /  0mm 0.0 W/m2
22:26 63.7 °F /  17.6 °C 48.2 °F /  9 °C 29.86in /  1011.1hPa Calm   1.0mph /  1.6km/h 57% 0.00in /  0mm 0.0 W/m2
22:32 63.3 °F /  17.4 °C 47.8 °F /  8.8 °C 29.86in /  1011.1hPa East 0.9mph /  1.4km/h 1.0mph /  1.6km/h 57% 0.00in /  0mm 0.0 W/m2
22:38 63.1 °F /  17.3 °C 47.7 °F /  8.7 °C 29.86in /  1011.1hPa NE 0.9mph /  1.4km/h 1.0mph /  1.6km/h 57% 0.00in /  0mm 0.0 W/m2
22:44 63.0 °F /  17.2 °C 48.4 °F /  9.1 °C 29.86in /  1011.1hPa Calm   2.0mph /  3.2km/h 59% 0.00in /  0mm 0.0 W/m2
22:50 62.8 °F /  17.1 °C 48.2 °F /  9 °C 29.86in /  1011.1hPa Calm   2.0mph /  3.2km/h 59% 0.00in /  0mm 0.0 W/m2
22:56 62.6 °F /  17 °C 47.7 °F /  8.7 °C 29.86in /  1011.1hPa NE 2.0mph /  3.2km/h 3.0mph /  4.8km/h 58% 0.00in /  0mm 0.0 W/m2
23:02 62.4 °F /  16.9 °C 47.8 °F /  8.8 °C 29.87in /  1011.4hPa Calm   1.0mph /  1.6km/h 59% 0.00in /  0mm 0.0 W/m2
23:08 62.2 °F /  16.8 °C 48.2 °F /  9 °C 29.87in /  1011.4hPa Calm   3.0mph /  4.8km/h 60% 0.00in /  0mm 0.0 W/m2
23:14 62.1 °F /  16.7 °C 48.4 °F /  9.1 °C 29.87in /  1011.4hPa Calm   1.0mph /  1.6km/h 61% 0.00in /  0mm 0.0 W/m2
23:20 61.9 °F /  16.6 °C 48.2 °F /  9 °C 29.87in /  1011.4hPa Calm   2.0mph /  3.2km/h 61% 0.00in /  0mm 0.0 W/m2
23:26 61.5 °F /  16.4 °C 48.0 °F /  8.9 °C 29.87in /  1011.4hPa Calm   2.0mph /  3.2km/h 61% 0.00in /  0mm 0.0 W/m2
23:32 61.2 °F /  16.2 °C 48.0 °F /  8.9 °C 29.87in /  1011.4hPa Calm   1.0mph /  1.6km/h 62% 0.00in /  0mm 0.0 W/m2
23:38 61.0 °F /  16.1 °C 47.8 °F /  8.8 °C 29.87in /  1011.4hPa Calm   2.0mph /  3.2km/h 62% 0.00in /  0mm 0.0 W/m2
23:44 60.8 °F /  16 °C 48.2 °F /  9 °C 29.87in /  1011.4hPa ESE 0.9mph /  1.4km/h 2.0mph /  3.2km/h 63% 0.00in /  0mm 0.0 W/m2
23:50 60.6 °F /  15.9 °C 47.5 °F /  8.6 °C 29.87in /  1011.4hPa Calm   1.0mph /  1.6km/h 62% 0.00in /  0mm 0.0 W/m2
23:56 60.3 °F /  15.7 °C 47.7 °F /  8.7 °C 29.87in /  1011.4hPa Calm   1.0mph /  1.6km/h 63% 0.00in /  0mm 0.0 W/m2
Olympia, Windhoek, Namibia
Compliments of Weather Underground - 2.75 mb